Deer Park, AL

1:04 PM CST on December 28, 2014 (GMT -0600)
York Hill Gulfcrest, Alabama | Change Station
CLOSE
Current Station
Personal Weather Station
Location: Chunchula, AL
Elevation: 190 ft
Nearby Weather Stations
Active Advisory: Flood Warning

Elev 190 ft 30.99 °N, 88.24 °W | Updated 6 minutes ago

Overcast
Overcast
76.1 °F
Feels Like 77 °F
N
0.0
Wind Variable Wind from SW

Today
High -- | Low -- °F
--% Chance of Precip.
Yesterday
High -- | Low -- °F
Precip. -- in
6:50 AM 4:59 PM
Waxing Crescent, 50% visible
Pressure 30.02 in
Visibility 10.0 miles
Clouds Few 1600 ft
Few 7000 ft
Overcast 9500 ft
Heat Index 77 °F
Dew Point 69 °F
Humidity 78%
Rainfall 0.14 in
Snow Depth Not available.
UV 1 out of 12
Pollen .20 out of 12
Air Quality Not available.
Flu Activity Not available.
METAR KMOB 281856Z 00000KT 10SM FEW016 FEW070 OVC095 23/19 A3003 RMK AO2 SLP165 T02280189 $

More Conditions Fewer Conditions

Pressure 30.02 in
Visibility 10.0 miles
Clouds Few 1600 ft
Few 7000 ft
Overcast 9500 ft
Heat Index 77 °F
Dew Point 69 °F
Humidity 78%
Rainfall 0.14 in
Snow Depth Not available.
UV 1 out of 12
Pollen .20 out of 12
Air Quality Not available.
Flu Activity Not available.
METAR KMOB 281856Z 00000KT 10SM FEW016 FEW070 OVC095 23/19 A3003 RMK AO2 SLP165 T02280189 $

More Conditions Fewer Conditions

10-Day Weather Forecast

Almanac

Astronomy

Dec. 28, 2014 Rise Set
Actual Time
Civil Twilight
Nautical Twilight
Astronomical Twilight
Moon
Length of Visible Light
Length of Day
Tomorrow will be .
, % of the Moon is Illuminated

Today's Extremes

State Highs State Lows

Community

WunderPhotos

Upload Photos

1,781,396 photos uploaded!

WunderBlogs® & News

Nearby

Air Quality

  Air Quality AQ Index Pollutant
Not available.

Snow Depth

Station Depth Elevation

Earthquake Activity

City Distance Mag. Time & Date
Minimum magnitude displayed is 2.5.

Coastal Water Temperatures

Place Temperature

Nearby Weather Stations